sensor_id;sensor_type;location;lat;lon;timestamp;pressure;altitude;pressure_sealevel;temperature;humidity
3206;BME280;1615;53.602;11.418;2023-05-07T00:00:18;101813.50;;;11.44;100.00
3206;BME280;1615;53.602;11.418;2023-05-07T00:02:45;101881.16;;;11.90;100.00
3206;BME280;1615;53.602;11.418;2023-05-07T00:05:10;101870.69;;;11.92;100.00
3206;BME280;1615;53.602;11.418;2023-05-07T00:07:35;101876.19;;;11.92;100.00
3206;BME280;1615;53.602;11.418;2023-05-07T00:10:02;101871.25;;;11.64;100.00
3206;BME280;1615;53.602;11.418;2023-05-07T00:12:27;101871.72;;;11.46;100.00
3206;BME280;1615;53.602;11.418;2023-05-07T00:14:52;101826.41;;;11.28;100.00
3206;BME280;1615;53.602;11.418;2023-05-07T00:17:18;101876.97;;;11.57;100.00
3206;BME280;1615;53.602;11.418;2023-05-07T00:19:43;101893.19;;;11.59;100.00
3206;BME280;1615;53.602;11.418;2023-05-07T00:22:08;101888.47;;;11.54;100.00
3206;BME280;1615;53.602;11.418;2023-05-07T00:24:34;101787.09;;;11.03;100.00
3206;BME280;1615;53.602;11.418;2023-05-07T00:26:59;101883.31;;;11.63;100.00
3206;BME280;1615;53.602;11.418;2023-05-07T00:29:25;101808.84;;;11.29;100.00
3206;BME280;1615;53.602;11.418;2023-05-07T00:31:50;101875.06;;;11.78;100.00
3206;BME280;1615;53.602;11.418;2023-05-07T00:34:16;101872.31;;;11.83;100.00
3206;BME280;1615;53.602;11.418;2023-05-07T00:36:41;101870.16;;;11.85;100.00
3206;BME280;1615;53.602;11.418;2023-05-07T00:39:06;101870.16;;;11.80;100.00
3206;BME280;1615;53.602;11.418;2023-05-07T00:41:32;101864.66;;;11.90;100.00
3206;BME280;1615;53.602;11.418;2023-05-07T00:43:57;101864.66;;;11.85;100.00
3206;BME280;1615;53.602;11.418;2023-05-07T00:46:23;101795.38;;;11.33;100.00
3206;BME280;1615;53.602;11.418;2023-05-07T00:48:50;101871.25;;;11.79;100.00
3206;BME280;1615;53.602;11.418;2023-05-07T00:51:16;101871.53;;;11.82;100.00
3206;BME280;1615;53.602;11.418;2023-05-07T00:53:42;101820.63;;;11.45;100.00
3206;BME280;1615;53.602;11.418;2023-05-07T00:56:07;101760.22;;;11.10;100.00
3206;BME280;1615;53.602;11.418;2023-05-07T00:58:33;101875.91;;;11.78;100.00
3206;BME280;1615;53.602;11.418;2023-05-07T01:00:59;101877.28;;;11.81;100.00
3206;BME280;1615;53.602;11.418;2023-05-07T01:03:25;101885.53;;;11.81;100.00
3206;BME280;1615;53.602;11.418;2023-05-07T01:05:51;101876.75;;;11.79;100.00
3206;BME280;1615;53.602;11.418;2023-05-07T01:08:18;101880.88;;;11.81;100.00
3206;BME280;1615;53.602;11.418;2023-05-07T01:10:44;101873.44;;;11.77;100.00
3206;BME280;1615;53.602;11.418;2023-05-07T01:13:12;101861.34;;;11.68;100.00
3206;BME280;1615;53.602;11.418;2023-05-07T01:15:38;101799.75;;;11.34;100.00
3206;BME280;1615;53.602;11.418;2023-05-07T01:18:04;101881.41;;;11.78;100.00
3206;BME280;1615;53.602;11.418;2023-05-07T01:20:30;101880.28;;;11.74;100.00
3206;BME280;1615;53.602;11.418;2023-05-07T01:22:56;101879.50;;;11.74;100.00
3206;BME280;1615;53.602;11.418;2023-05-07T01:25:22;101825.88;;;11.46;100.00
3206;BME280;1615;53.602;11.418;2023-05-07T01:27:48;101809.63;;;11.35;100.00
3206;BME280;1615;53.602;11.418;2023-05-07T01:30:13;101865.75;;;11.64;100.00
3206;BME280;1615;53.602;11.418;2023-05-07T01:32:55;101754.72;;;10.95;100.00
3206;BME280;1615;53.602;11.418;2023-05-07T01:35:27;101850.84;;;11.50;100.00
3206;BME280;1615;53.602;11.418;2023-05-07T01:37:54;101870.13;;;11.65;100.00
3206;BME280;1615;53.602;11.418;2023-05-07T01:40:20;101866.84;;;11.83;100.00
3206;BME280;1615;53.602;11.418;2023-05-07T01:42:46;101805.00;;;11.35;100.00
3206;BME280;1615;53.602;11.418;2023-05-07T01:45:13;101762.69;;;11.01;100.00
3206;BME280;1615;53.602;11.418;2023-05-07T01:47:39;101820.06;;;11.28;100.00
3206;BME280;1615;53.602;11.418;2023-05-07T01:50:07;101867.38;;;11.60;100.00
3206;BME280;1615;53.602;11.418;2023-05-07T01:52:34;101864.66;;;11.70;100.00
3206;BME280;1615;53.602;11.418;2023-05-07T01:54:59;101865.75;;;11.74;100.00
3206;BME280;1615;53.602;11.418;2023-05-07T01:57:24;101865.75;;;11.79;100.00
3206;BME280;1615;53.602;11.418;2023-05-07T01:59:50;101867.66;;;11.83;100.00
3206;BME280;1615;53.602;11.418;2023-05-07T02:02:15;101787.94;;;11.38;100.00
3206;BME280;1615;53.602;11.418;2023-05-07T02:04:41;101868.78;;;11.87;100.00
3206;BME280;1615;53.602;11.418;2023-05-07T02:07:06;101864.09;;;11.88;100.00
3206;BME280;1615;53.602;11.418;2023-05-07T02:09:31;101868.22;;;11.90;100.00
3206;BME280;1615;53.602;11.418;2023-05-07T02:11:56;101871.78;;;11.96;100.00
3206;BME280;1615;53.602;11.418;2023-05-07T02:14:22;101783.31;;;11.49;100.00
3206;BME280;1615;53.602;11.418;2023-05-07T02:16:47;101802.53;;;11.49;100.00
3206;BME280;1615;53.602;11.418;2023-05-07T02:19:12;101875.91;;;11.93;100.00
3206;BME280;1615;53.602;11.418;2023-05-07T02:21:38;101887.19;;;11.92;100.00
3206;BME280;1615;53.602;11.418;2023-05-07T02:24:03;101860.25;;;11.79;100.00
3206;BME280;1615;53.602;11.418;2023-05-07T02:26:28;101822.59;;;11.44;100.00
3206;BME280;1615;53.602;11.418;2023-05-07T02:28:54;101861.34;;;11.83;100.00
3206;BME280;1615;53.602;11.418;2023-05-07T02:31:19;101880.03;;;11.91;100.00
3206;BME280;1615;53.602;11.418;2023-05-07T02:33:44;101873.16;;;11.93;100.00
3206;BME280;1615;53.602;11.418;2023-05-07T02:36:11;101875.06;;;11.88;100.00
3206;BME280;1615;53.602;11.418;2023-05-07T02:38:37;101881.16;;;11.90;100.00
3206;BME280;1615;53.602;11.418;2023-05-07T02:41:03;101803.06;;;11.41;100.00
3206;BME280;1615;53.602;11.418;2023-05-07T02:43:28;101886.06;;;11.88;100.00
3206;BME280;1615;53.602;11.418;2023-05-07T02:46:04;101888.28;;;11.91;100.00
3206;BME280;1615;53.602;11.418;2023-05-07T02:48:30;101883.31;;;11.88;100.00
3206;BME280;1615;53.602;11.418;2023-05-07T02:50:56;101890.50;;;11.84;100.00
3206;BME280;1615;53.602;11.418;2023-05-07T02:53:21;101891.03;;;11.81;100.00
3206;BME280;1615;53.602;11.418;2023-05-07T02:55:46;101891.03;;;11.81;100.00
3206;BME280;1615;53.602;11.418;2023-05-07T02:58:12;101832.19;;;11.47;100.00
3206;BME280;1615;53.602;11.418;2023-05-07T03:00:37;101894.59;;;11.86;100.00
3206;BME280;1615;53.602;11.418;2023-05-07T03:03:02;101893.75;;;11.76;100.00
3206;BME280;1615;53.602;11.418;2023-05-07T03:05:28;101880.88;;;11.76;100.00
3206;BME280;1615;53.602;11.418;2023-05-07T03:07:53;101891.56;;;11.78;100.00
3206;BME280;1615;53.602;11.418;2023-05-07T03:10:18;101888.28;;;11.76;100.00
3206;BME280;1615;53.602;11.418;2023-05-07T03:12:44;101887.44;;;11.70;100.00
3206;BME280;1615;53.602;11.418;2023-05-07T03:15:09;101891.03;;;11.76;100.00
3206;BME280;1615;53.602;11.418;2023-05-07T03:17:36;101893.22;;;11.79;100.00
3206;BME280;1615;53.602;11.418;2023-05-07T03:20:05;101889.38;;;11.80;100.00
3206;BME280;1615;53.602;11.418;2023-05-07T03:22:30;101888.81;;;11.83;100.00
3206;BME280;1615;53.602;11.418;2023-05-07T03:24:56;101888.81;;;11.83;100.00
3206;BME280;1615;53.602;11.418;2023-05-07T03:27:21;101886.63;;;11.85;100.00
3206;BME280;1615;53.602;11.418;2023-05-07T03:29:46;101880.84;;;11.86;100.00
3206;BME280;1615;53.602;11.418;2023-05-07T03:32:12;101775.34;;;11.17;100.00
3206;BME280;1615;53.602;11.418;2023-05-07T03:34:37;101884.44;;;11.87;100.00
3206;BME280;1615;53.602;11.418;2023-05-07T03:37:02;101886.06;;;11.88;100.00
3206;BME280;1615;53.602;11.418;2023-05-07T03:39:28;101833.84;;;11.48;100.00
3206;BME280;1615;53.602;11.418;2023-05-07T03:41:53;101904.75;;;11.86;100.00
3206;BME280;1615;53.602;11.418;2023-05-07T03:44:18;101892.13;;;11.85;100.00
3206;BME280;1615;53.602;11.418;2023-05-07T03:46:44;101896.53;;;11.86;100.00
3206;BME280;1615;53.602;11.418;2023-05-07T03:49:09;101897.06;;;11.88;100.00
3206;BME280;1615;53.602;11.418;2023-05-07T03:51:34;101901.47;;;11.74;100.00
3206;BME280;1615;53.602;11.418;2023-05-07T03:54:01;101902.00;;;11.71;100.00
3206;BME280;1615;53.602;11.418;2023-05-07T03:56:29;101906.41;;;11.82;100.00
3206;BME280;1615;53.602;11.418;2023-05-07T03:58:56;101906.13;;;11.83;100.00
3206;BME280;1615;53.602;11.418;2023-05-07T04:01:21;101889.91;;;11.67;100.00
3206;BME280;1615;53.602;11.418;2023-05-07T04:03:46;101910.81;;;11.88;100.00
3206;BME280;1615;53.602;11.418;2023-05-07T04:06:12;101905.88;;;11.90;100.00
3206;BME280;1615;53.602;11.418;2023-05-07T04:08:37;101914.63;;;11.77;100.00
3206;BME280;1615;53.602;11.418;2023-05-07T04:11:02;101914.13;;;11.85;100.00
3206;BME280;1615;53.602;11.418;2023-05-07T04:13:29;101933.34;;;11.90;100.00
3206;BME280;1615;53.602;11.418;2023-05-07T04:15:55;101910.25;;;11.86;100.00
3206;BME280;1615;53.602;11.418;2023-05-07T04:18:21;101919.88;;;11.93;100.00
3206;BME280;1615;53.602;11.418;2023-05-07T04:20:47;101935.53;;;11.98;100.00
3206;BME280;1615;53.602;11.418;2023-05-07T04:23:12;101922.38;;;12.00;100.00
3206;BME280;1615;53.602;11.418;2023-05-07T04:25:38;101925.09;;;12.05;100.00
3206;BME280;1615;53.602;11.418;2023-05-07T04:28:03;101921.81;;;12.08;100.00
3206;BME280;1615;53.602;11.418;2023-05-07T04:30:29;101967.44;;;12.09;100.00
3206;BME280;1615;53.602;11.418;2023-05-07T04:32:54;101922.06;;;12.06;100.00
3206;BME280;1615;53.602;11.418;2023-05-07T04:35:19;101926.75;;;12.01;100.00
3206;BME280;1615;53.602;11.418;2023-05-07T04:37:45;101920.69;;;11.99;100.00
3206;BME280;1615;53.602;11.418;2023-05-07T04:40:10;101930.88;;;11.93;100.00
3206;BME280;1615;53.602;11.418;2023-05-07T04:42:36;101933.91;;;11.92;100.00
3206;BME280;1615;53.602;11.418;2023-05-07T04:45:02;101878.31;;;11.50;100.00
3206;BME280;1615;53.602;11.418;2023-05-07T04:47:27;101894.28;;;11.73;100.00
3206;BME280;1615;53.602;11.418;2023-05-07T04:49:52;101916.88;;;11.95;100.00
3206;BME280;1615;53.602;11.418;2023-05-07T04:52:18;101906.97;;;11.84;100.00
3206;BME280;1615;53.602;11.418;2023-05-07T04:54:43;101833.25;;;11.46;100.00
3206;BME280;1615;53.602;11.418;2023-05-07T04:57:08;101924.56;;;11.98;100.00
3206;BME280;1615;53.602;11.418;2023-05-07T04:59:34;101930.63;;;11.95;100.00
3206;BME280;1615;53.602;11.418;2023-05-07T05:01:59;101932.78;;;11.93;100.00
3206;BME280;1615;53.602;11.418;2023-05-07T05:04:25;101938.84;;;11.90;100.00
3206;BME280;1615;53.602;11.418;2023-05-07T05:06:50;101928.41;;;11.87;100.00
3206;BME280;1615;53.602;11.418;2023-05-07T05:09:16;101944.34;;;11.90;100.00
3206;BME280;1615;53.602;11.418;2023-05-07T05:11:41;101560.22;;;9.05;100.00
3206;BME280;1615;53.602;11.418;2023-05-07T05:14:06;101942.69;;;11.79;100.00
3206;BME280;1615;53.602;11.418;2023-05-07T05:16:32;101897.03;;;11.58;100.00
3206;BME280;1615;53.602;11.418;2023-05-07T05:18:57;101949.84;;;11.85;100.00
3206;BME280;1615;53.602;11.418;2023-05-07T05:21:23;101950.38;;;11.87;100.00
3206;BME280;1615;53.602;11.418;2023-05-07T05:23:48;101870.34;;;11.33;100.00
3206;BME280;1615;53.602;11.418;2023-05-07T05:26:13;101961.91;;;11.89;100.00
3206;BME280;1615;53.602;11.418;2023-05-07T05:28:39;101958.34;;;11.88;100.00
3206;BME280;1615;53.602;11.418;2023-05-07T05:31:05;101970.16;;;11.89;100.00
3206;BME280;1615;53.602;11.418;2023-05-07T05:33:30;101865.66;;;11.34;100.00
3206;BME280;1615;53.602;11.418;2023-05-07T05:35:55;101891.22;;;11.44;100.00
3206;BME280;1615;53.602;11.418;2023-05-07T05:38:21;101968.00;;;12.06;100.00
3206;BME280;1615;53.602;11.418;2023-05-07T05:40:46;101913.00;;;11.71;100.00
3206;BME280;1615;53.602;11.418;2023-05-07T05:43:13;101971.03;;;12.19;100.00
3206;BME280;1615;53.602;11.418;2023-05-07T05:45:38;101967.44;;;12.24;100.00
3206;BME280;1615;53.602;11.418;2023-05-07T05:48:03;101975.16;;;12.27;100.00
3206;BME280;1615;53.602;11.418;2023-05-07T05:50:29;101979.56;;;12.28;100.00
3206;BME280;1615;53.602;11.418;2023-05-07T05:52:54;101985.06;;;12.38;100.00
3206;BME280;1615;53.602;11.418;2023-05-07T05:55:20;101988.34;;;12.40;100.00
3206;BME280;1615;53.602;11.418;2023-05-07T05:57:45;102005.94;;;12.44;100.00
3206;BME280;1615;53.602;11.418;2023-05-07T06:00:11;101980.09;;;12.50;100.00
3206;BME280;1615;53.602;11.418;2023-05-07T06:02:37;101977.88;;;12.52;100.00
3206;BME280;1615;53.602;11.418;2023-05-07T06:05:03;101989.97;;;12.41;100.00
3206;BME280;1615;53.602;11.418;2023-05-07T06:07:28;101900.38;;;11.95;100.00
3206;BME280;1615;53.602;11.418;2023-05-07T06:09:53;101909.16;;;12.02;100.00
3206;BME280;1615;53.602;11.418;2023-05-07T06:12:20;101994.09;;;12.63;100.00
3206;BME280;1615;53.602;11.418;2023-05-07T06:14:46;101988.88;;;12.47;100.00
3206;BME280;1615;53.602;11.418;2023-05-07T06:17:11;101943.53;;;12.29;100.00
3206;BME280;1615;53.602;11.418;2023-05-07T06:19:36;101995.22;;;12.67;100.00
3206;BME280;1615;53.602;11.418;2023-05-07T06:22:02;101993.28;;;12.58;100.00
3206;BME280;1615;53.602;11.418;2023-05-07T06:24:27;101986.13;;;12.62;100.00
3206;BME280;1615;53.602;11.418;2023-05-07T06:26:53;101658.38;;;10.61;100.00
3206;BME280;1615;53.602;11.418;2023-05-07T06:29:18;101981.16;;;12.69;100.00
3206;BME280;1615;53.602;11.418;2023-05-07T06:31:43;102008.66;;;12.69;100.00
3206;BME280;1615;53.602;11.418;2023-05-07T06:34:09;101873.44;;;12.07;100.00
3206;BME280;1615;53.602;11.418;2023-05-07T06:36:35;101980.31;;;12.78;100.00
3206;BME280;1615;53.602;11.418;2023-05-07T06:39:00;101911.59;;;12.43;100.00
3206;BME280;1615;53.602;11.418;2023-05-07T06:41:26;101987.16;;;13.06;100.00
3206;BME280;1615;53.602;11.418;2023-05-07T06:43:51;101992.66;;;13.06;100.00
3206;BME280;1615;53.602;11.418;2023-05-07T06:46:17;101857.97;;;12.36;100.00
3206;BME280;1615;53.602;11.418;2023-05-07T06:48:42;101988.50;;;13.13;100.00
3206;BME280;1615;53.602;11.418;2023-05-07T06:51:07;101982.75;;;13.10;100.00
3206;BME280;1615;53.602;11.418;2023-05-07T06:53:34;102014.16;;;13.04;100.00
3206;BME280;1615;53.602;11.418;2023-05-07T06:56:00;101984.41;;;13.06;100.00
3206;BME280;1615;53.602;11.418;2023-05-07T06:58:25;101993.75;;;13.15;100.00
3206;BME280;1615;53.602;11.418;2023-05-07T07:00:51;101990.41;;;13.28;100.00
3206;BME280;1615;53.602;11.418;2023-05-07T07:03:16;101994.75;;;13.39;100.00
3206;BME280;1615;53.602;11.418;2023-05-07T07:05:41;101990.88;;;13.45;100.00
3206;BME280;1615;53.602;11.418;2023-05-07T07:08:07;101988.63;;;13.52;100.00
3206;BME280;1615;53.602;11.418;2023-05-07T07:10:32;101993.81;;;13.63;100.00
3206;BME280;1615;53.602;11.418;2023-05-07T07:12:57;101993.47;;;13.70;100.00
3206;BME280;1615;53.602;11.418;2023-05-07T07:15:23;101981.59;;;13.79;100.00
3206;BME280;1615;53.602;11.418;2023-05-07T07:17:50;101975.19;;;13.89;100.00
3206;BME280;1615;53.602;11.418;2023-05-07T07:20:16;101948.06;;;13.62;100.00
3206;BME280;1615;53.602;11.418;2023-05-07T07:22:41;101981.78;;;13.93;100.00
3206;BME280;1615;53.602;11.418;2023-05-07T07:25:07;101992.16;;;14.06;100.00
3206;BME280;1615;53.602;11.418;2023-05-07T07:27:32;101982.38;;;13.85;100.00
3206;BME280;1615;53.602;11.418;2023-05-07T07:29:57;101990.03;;;13.98;100.00
3206;BME280;1615;53.602;11.418;2023-05-07T07:32:23;101986.63;;;14.11;100.00
3206;BME280;1615;53.602;11.418;2023-05-07T07:34:48;101985.47;;;14.17;100.00
3206;BME280;1615;53.602;11.418;2023-05-07T07:37:13;101998.72;;;14.20;100.00
3206;BME280;1615;53.602;11.418;2023-05-07T07:39:39;101993.44;;;14.23;100.00
3206;BME280;1615;53.602;11.418;2023-05-07T07:42:04;101985.19;;;14.23;100.00
3206;BME280;1615;53.602;11.418;2023-05-07T07:44:30;101937.00;;;14.06;100.00
3206;BME280;1615;53.602;11.418;2023-05-07T07:46:55;101975.28;;;14.51;100.00
3206;BME280;1615;53.602;11.418;2023-05-07T07:49:20;101927.63;;;14.07;100.00
3206;BME280;1615;53.602;11.418;2023-05-07T07:51:46;101978.28;;;14.54;100.00
3206;BME280;1615;53.602;11.418;2023-05-07T07:54:11;101971.13;;;14.77;100.00
3206;BME280;1615;53.602;11.418;2023-05-07T07:56:36;101975.47;;;14.88;100.00
3206;BME280;1615;53.602;11.418;2023-05-07T07:59:02;101954.00;;;14.80;100.00
3206;BME280;1615;53.602;11.418;2023-05-07T08:01:31;101984.06;;;15.10;100.00
3206;BME280;1615;53.602;11.418;2023-05-07T08:03:56;101912.88;;;14.78;100.00
3206;BME280;1615;53.602;11.418;2023-05-07T08:06:23;101968.53;;;15.14;100.00
3206;BME280;1615;53.602;11.418;2023-05-07T08:08:49;101962.69;;;14.92;100.00
3206;BME280;1615;53.602;11.418;2023-05-07T08:11:14;101978.53;;;14.86;100.00
3206;BME280;1615;53.602;11.418;2023-05-07T08:13:39;101987.84;;;15.14;100.00
3206;BME280;1615;53.602;11.418;2023-05-07T08:16:05;101871.91;;;14.67;100.00
3206;BME280;1615;53.602;11.418;2023-05-07T08:18:30;101981.50;;;15.42;100.00
3206;BME280;1615;53.602;11.418;2023-05-07T08:20:55;101931.56;;;15.10;100.00
3206;BME280;1615;53.602;11.418;2023-05-07T08:23:21;101982.59;;;15.41;100.00
3206;BME280;1615;53.602;11.418;2023-05-07T08:25:48;101967.28;;;15.25;100.00
3206;BME280;1615;53.602;11.418;2023-05-07T08:28:14;101984.81;;;15.81;100.00
3206;BME280;1615;53.602;11.418;2023-05-07T08:30:39;101884.03;;;15.31;100.00
3206;BME280;1615;53.602;11.418;2023-05-07T08:33:04;101982.03;;;16.18;100.00
3206;BME280;1615;53.602;11.418;2023-05-07T08:35:30;101972.38;;;16.15;100.00
3206;BME280;1615;53.602;11.418;2023-05-07T08:37:56;101976.50;;;16.18;100.00
3206;BME280;1615;53.602;11.418;2023-05-07T08:40:25;101975.09;;;16.39;100.00
3206;BME280;1615;53.602;11.418;2023-05-07T08:42:52;101980.03;;;16.37;100.00
3206;BME280;1615;53.602;11.418;2023-05-07T08:45:19;101937.31;;;16.29;100.00
3206;BME280;1615;53.602;11.418;2023-05-07T08:47:56;101963.84;;;16.30;100.00
3206;BME280;1615;53.602;11.418;2023-05-07T08:50:23;101964.50;;;16.41;100.00
3206;BME280;1615;53.602;11.418;2023-05-07T08:52:49;101967.34;;;16.36;100.00
3206;BME280;1615;53.602;11.418;2023-05-07T08:55:14;101885.53;;;15.98;100.00
3206;BME280;1615;53.602;11.418;2023-05-07T08:57:40;101969.69;;;16.29;100.00
3206;BME280;1615;53.602;11.418;2023-05-07T09:00:06;101966.91;;;16.29;100.00
3206;BME280;1615;53.602;11.418;2023-05-07T09:02:32;101969.63;;;16.15;100.00
3206;BME280;1615;53.602;11.418;2023-05-07T09:04:58;101969.97;;;16.27;100.00
3206;BME280;1615;53.602;11.418;2023-05-07T09:07:23;101963.72;;;16.40;100.00
3206;BME280;1615;53.602;11.418;2023-05-07T09:09:49;101967.19;;;16.46;100.00
3206;BME280;1615;53.602;11.418;2023-05-07T09:12:15;101946.31;;;16.53;100.00
3206;BME280;1615;53.602;11.418;2023-05-07T09:14:40;101966.22;;;16.69;100.00
3206;BME280;1615;53.602;11.418;2023-05-07T09:17:05;101951.34;;;16.51;100.00
3206;BME280;1615;53.602;11.418;2023-05-07T09:19:31;101912.06;;;16.31;100.00
3206;BME280;1615;53.602;11.418;2023-05-07T09:22:04;101979.75;;;16.57;100.00
3206;BME280;1615;53.602;11.418;2023-05-07T09:24:30;101966.44;;;16.59;100.00
3206;BME280;1615;53.602;11.418;2023-05-07T09:27:00;101977.31;;;16.82;100.00
3206;BME280;1615;53.602;11.418;2023-05-07T09:29:26;101897.19;;;16.13;100.00
3206;BME280;1615;53.602;11.418;2023-05-07T09:31:54;101983.41;;;16.84;100.00
3206;BME280;1615;53.602;11.418;2023-05-07T09:34:19;101927.84;;;16.49;100.00
3206;BME280;1615;53.602;11.418;2023-05-07T09:36:45;101928.28;;;16.69;100.00
3206;BME280;1615;53.602;11.418;2023-05-07T09:39:10;101992.56;;;17.12;100.00
3206;BME280;1615;53.602;11.418;2023-05-07T09:41:46;101979.03;;;17.10;100.00
3206;BME280;1615;53.602;11.418;2023-05-07T09:44:13;101944.31;;;17.13;100.00
3206;BME280;1615;53.602;11.418;2023-05-07T09:46:43;101913.91;;;17.48;100.00
3206;BME280;1615;53.602;11.418;2023-05-07T09:49:21;101959.22;;;17.93;100.00
3206;BME280;1615;53.602;11.418;2023-05-07T09:51:50;101960.72;;;17.99;100.00
3206;BME280;1615;53.602;11.418;2023-05-07T09:54:17;101986.94;;;18.06;100.00
3206;BME280;1615;53.602;11.418;2023-05-07T09:56:44;101929.06;;;18.00;99.58
3206;BME280;1615;53.602;11.418;2023-05-07T09:59:14;101971.22;;;18.24;97.06
3206;BME280;1615;53.602;11.418;2023-05-07T10:01:41;101962.03;;;18.37;97.07
3206;BME280;1615;53.602;11.418;2023-05-07T10:04:07;101962.50;;;18.17;96.27
3206;BME280;1615;53.602;11.418;2023-05-07T10:06:36;101963.28;;;18.09;97.83
3206;BME280;1615;53.602;11.418;2023-05-07T10:09:05;101960.28;;;17.70;96.94
3206;BME280;1615;53.602;11.418;2023-05-07T10:11:35;101974.69;;;17.72;97.81
3206;BME280;1615;53.602;11.418;2023-05-07T10:14:02;101961.69;;;17.81;98.39
3206;BME280;1615;53.602;11.418;2023-05-07T10:16:32;101976.91;;;17.83;99.23
3206;BME280;1615;53.602;11.418;2023-05-07T10:19:02;101972.44;;;17.96;100.00
3206;BME280;1615;53.602;11.418;2023-05-07T10:21:29;101974.03;;;18.10;99.69
3206;BME280;1615;53.602;11.418;2023-05-07T10:23:59;101978.47;;;18.11;97.09
3206;BME280;1615;53.602;11.418;2023-05-07T10:26:26;101976.00;;;18.10;98.89
3206;BME280;1615;53.602;11.418;2023-05-07T10:29:03;101981.31;;;17.98;96.36
3206;BME280;1615;53.602;11.418;2023-05-07T10:34:02;101932.81;;;17.60;95.41
3206;BME280;1615;53.602;11.418;2023-05-07T10:36:32;101975.81;;;18.06;96.49
3206;BME280;1615;53.602;11.418;2023-05-07T10:38:59;101985.72;;;17.99;93.15
3206;BME280;1615;53.602;11.418;2023-05-07T10:41:25;101974.03;;;17.75;95.38
3206;BME280;1615;53.602;11.418;2023-05-07T10:43:51;101928.94;;;17.47;97.86
3206;BME280;1615;53.602;11.418;2023-05-07T10:46:18;101980.13;;;17.77;96.05
3206;BME280;1615;53.602;11.418;2023-05-07T10:51:29;101963.13;;;17.78;95.63
3206;BME280;1615;53.602;11.418;2023-05-07T10:56:37;101960.47;;;17.87;96.29
3206;BME280;1615;53.602;11.418;2023-05-07T11:01:54;101979.16;;;18.17;95.43
3206;BME280;1615;53.602;11.418;2023-05-07T11:04:20;101926.53;;;17.90;95.90
3206;BME280;1615;53.602;11.418;2023-05-07T11:12:16;101844.78;;;17.52;94.46
3206;BME280;1615;53.602;11.418;2023-05-07T11:17:08;101944.16;;;18.51;92.71
3206;BME280;1615;53.602;11.418;2023-05-07T11:19:53;101941.38;;;18.82;91.80
3206;BME280;1615;53.602;11.418;2023-05-07T11:24:59;101958.63;;;18.62;88.96
3206;BME280;1615;53.602;11.418;2023-05-07T11:27:25;101905.84;;;18.18;90.08
3206;BME280;1615;53.602;11.418;2023-05-07T11:29:50;101947.78;;;18.52;88.68
3206;BME280;1615;53.602;11.418;2023-05-07T11:32:22;101924.41;;;18.09;88.11
3206;BME280;1615;53.602;11.418;2023-05-07T11:34:51;101933.22;;;18.11;89.41
3206;BME280;1615;53.602;11.418;2023-05-07T11:37:17;101887.31;;;17.83;88.35
3206;BME280;1615;53.602;11.418;2023-05-07T11:39:43;101950.97;;;18.45;89.64
3206;BME280;1615;53.602;11.418;2023-05-07T11:42:31;101956.41;;;18.50;89.13
3206;BME280;1615;53.602;11.418;2023-05-07T11:44:57;101952.28;;;18.70;89.25
3206;BME280;1615;53.602;11.418;2023-05-07T11:47:23;101874.81;;;18.38;87.80
3206;BME280;1615;53.602;11.418;2023-05-07T11:49:51;101938.84;;;18.94;86.42
3206;BME280;1615;53.602;11.418;2023-05-07T11:52:18;101950.44;;;18.96;85.89
3206;BME280;1615;53.602;11.418;2023-05-07T11:54:56;101944.59;;;18.45;86.53
3206;BME280;1615;53.602;11.418;2023-05-07T11:57:25;101957.13;;;18.56;86.61
3206;BME280;1615;53.602;11.418;2023-05-07T11:59:55;101972.88;;;18.69;88.04
3206;BME280;1615;53.602;11.418;2023-05-07T12:02:21;101924.72;;;18.29;87.30
3206;BME280;1615;53.602;11.418;2023-05-07T12:04:46;101950.63;;;18.38;87.26
3206;BME280;1615;53.602;11.418;2023-05-07T12:07:15;101950.91;;;18.15;89.97
3206;BME280;1615;53.602;11.418;2023-05-07T12:09:41;101950.19;;;18.75;87.07
3206;BME280;1615;53.602;11.418;2023-05-07T12:12:07;101952.28;;;18.70;85.42
3206;BME280;1615;53.602;11.418;2023-05-07T12:14:32;101953.84;;;18.93;85.46
3206;BME280;1615;53.602;11.418;2023-05-07T12:16:59;101963.06;;;19.02;83.83
3206;BME280;1615;53.602;11.418;2023-05-07T12:19:31;101951.94;;;19.02;81.65
3206;BME280;1615;53.602;11.418;2023-05-07T12:21:56;101881.59;;;18.54;81.81
3206;BME280;1615;53.602;11.418;2023-05-07T12:24:22;101941.97;;;19.01;81.59
3206;BME280;1615;53.602;11.418;2023-05-07T12:26:48;101950.91;;;18.89;84.53
3206;BME280;1615;53.602;11.418;2023-05-07T12:29:14;101913.81;;;18.63;83.39
3206;BME280;1615;53.602;11.418;2023-05-07T12:31:41;101860.84;;;18.29;84.91
3206;BME280;1615;53.602;11.418;2023-05-07T12:34:07;101945.34;;;18.89;83.85
3206;BME280;1615;53.602;11.418;2023-05-07T12:36:39;101945.69;;;18.88;83.26
3206;BME280;1615;53.602;11.418;2023-05-07T12:39:06;101931.53;;;18.76;82.99
3206;BME280;1615;53.602;11.418;2023-05-07T12:41:36;101944.44;;;19.02;86.71
3206;BME280;1615;53.602;11.418;2023-05-07T12:44:04;101953.94;;;19.10;82.46
3206;BME280;1615;53.602;11.418;2023-05-07T12:46:30;101950.25;;;19.23;82.05
3206;BME280;1615;53.602;11.418;2023-05-07T12:48:56;101947.16;;;19.24;82.83
3206;BME280;1615;53.602;11.418;2023-05-07T12:51:22;101942.69;;;19.15;78.85
3206;BME280;1615;53.602;11.418;2023-05-07T12:53:47;101909.34;;;18.84;79.69
3206;BME280;1615;53.602;11.418;2023-05-07T12:56:15;101953.19;;;18.87;78.02
3206;BME280;1615;53.602;11.418;2023-05-07T12:58:40;101943.19;;;18.78;80.01
3206;BME280;1615;53.602;11.418;2023-05-07T13:01:07;101936.47;;;19.18;80.56
3206;BME280;1615;53.602;11.418;2023-05-07T13:03:37;101949.31;;;19.36;80.16
3206;BME280;1615;53.602;11.418;2023-05-07T13:06:05;101950.50;;;19.52;78.82
3206;BME280;1615;53.602;11.418;2023-05-07T13:08:33;101797.53;;;18.79;78.80